This is the latest recevied weather packets stored in our database for station/object PY2VE-13. If no packets are shown the sender has not sent any weather packets the latest 10 day(s).
| Time | Temp. | Humidity | Pressure | Rain* | Wind** | Luminosity | Snow |
|---|---|---|---|---|---|---|---|
| 1777655023 | 30° C | 43% | 1020.8 hPa | - | - | - | - |
| 1777654123 | 30° C | 42% | 1021.1 hPa | - | - | - | - |
| 1777653223 | 30° C | 43% | 1021.1 hPa | - | - | - | - |
| 1777652323 | 31.11° C | 41% | 1021.2 hPa | - | - | - | - |
| 1777651423 | 29.44° C | 44% | 1021.7 hPa | - | - | - | - |
| 1777650523 | 30° C | 42% | 1021.9 hPa | - | - | - | - |
| 1777649623 | 30.56° C | 41% | 1022 hPa | - | - | - | - |
| 1777648723 | 30.56° C | 41% | 1022.2 hPa | - | - | - | - |
| 1777647823 | 30.56° C | 40% | 1022.5 hPa | - | - | - | - |
| 1777646923 | 30° C | 41% | 1022.9 hPa | - | - | - | - |
| 1777646023 | 30° C | 41% | 1023.1 hPa | - | - | - | - |
| 1777645122 | 30° C | 42% | 1023.4 hPa | - | - | - | - |
| 1777644222 | 30° C | 44% | 1023.6 hPa | - | - | - | - |
| 1777643322 | 29.44° C | 45% | 1023.9 hPa | - | - | - | - |
| 1777642423 | 28.89° C | 48% | 1024.4 hPa | - | - | - | - |
| 1777641522 | 29.44° C | 46% | 1024.3 hPa | - | - | - | - |
| 1777640622 | 29.44° C | 48% | 1024.5 hPa | - | - | - | - |
| 1777639722 | 28.89° C | 48% | 1024.4 hPa | - | - | - | - |
| 1777638822 | 27.78° C | 52% | 1024.7 hPa | - | - | - | - |
| 1777637922 | 28.33° C | 51% | 1024.5 hPa | - | - | - | - |
| 1777637022 | 27.22° C | 54% | 1024.5 hPa | - | - | - | - |
| 1777636122 | 27.22° C | 54% | 1024.4 hPa | - | - | - | - |
| 1777635223 | 24.44° C | 62% | 1024.8 hPa | - | - | - | - |
| 1777634322 | 24.44° C | 61% | 1024.7 hPa | - | - | - | - |
| 1777633422 | 24.44° C | 61% | 1024.5 hPa | - | - | - | - |
* Rain since midnight (hover to see other rain measurements)
** Current wind speed in m/s (hover to see current wind gust speed)